Time;durP1;ratioP1;P1;durP2;ratioP2;P2;SDS_P1;SDS_P2;PMS_P1;PMS_P2;Temp;Humidity;BMP_temperature;BMP_pressure;BME280_temperature;BME280_humidity;BME280_pressure;Samples;Min_cycle;Max_cycle;Signal;HPM_P1;HPM_P2
2023/04/29 00:01:23;;;;;;;0.98;0.40;;;19.10;60.80;;;;;;5011233;28;20112;-72
2023/04/29 00:03:50;;;;;;;1.20;0.35;;;19.00;60.80;;;;;;5011222;28;20050;-71
2023/04/29 00:06:17;;;;;;;0.93;0.20;;;19.00;60.80;;;;;;5009819;28;20812;-72
2023/04/29 00:08:44;;;;;;;1.30;0.40;;;19.00;60.80;;;;;;5011277;28;20050;-72
2023/04/29 00:11:11;;;;;;;1.60;0.20;;;19.00;60.80;;;;;;5013091;28;20486;-72
2023/04/29 00:13:39;;;;;;;1.50;0.68;;;19.00;60.90;;;;;;5023677;28;20096;-72
2023/04/29 00:16:09;;;;;;;1.10;0.30;;;19.00;60.90;;;;;;5010186;28;20045;-72
2023/04/29 00:18:37;;;;;;;1.30;0.40;;;19.00;60.90;;;;;;5010878;28;20574;-71
2023/04/29 00:21:05;;;;;;;1.45;0.40;;;19.00;60.90;;;;;;5010888;28;20080;-72
2023/04/29 00:23:32;;;;;;;1.85;0.38;;;19.00;60.90;;;;;;5009746;28;20470;-72
2023/04/29 00:25:59;;;;;;;1.83;0.47;;;19.00;60.90;;;;;;5010529;28;20064;-72
2023/04/29 00:28:26;;;;;;;1.08;0.32;;;19.00;60.90;;;;;;5016694;28;20160;-71
2023/04/29 00:30:54;;;;;;;1.33;0.32;;;18.90;60.80;;;;;;5030709;28;20063;-71
2023/04/29 00:33:21;;;;;;;0.82;0.25;;;18.90;60.90;;;;;;5029013;28;20053;-71
2023/04/29 00:35:50;;;;;;;1.10;0.30;;;18.90;60.90;;;;;;5029184;28;20057;-72
2023/04/29 00:38:17;;;;;;;1.00;0.50;;;18.90;60.90;;;;;;5027165;28;20058;-72
2023/04/29 00:40:44;;;;;;;1.30;0.43;;;18.90;60.90;;;;;;5010580;28;20046;-71
2023/04/29 00:43:11;;;;;;;1.42;0.40;;;18.90;61.50;;;;;;5008931;28;20050;-72
2023/04/29 00:45:39;;;;;;;1.23;0.50;;;18.90;60.90;;;;;;5017942;28;20052;-72
2023/04/29 00:48:06;;;;;;;1.00;0.32;;;18.90;60.90;;;;;;5009632;28;20064;-72
2023/04/29 00:50:33;;;;;;;1.00;0.30;;;18.90;60.90;;;;;;5008972;28;20054;-72
2023/04/29 00:53:02;;;;;;;1.15;0.30;;;18.90;60.90;;;;;;5010083;28;20538;-72
2023/04/29 00:55:30;;;;;;;0.88;0.32;;;18.90;61.00;;;;;;5008929;28;20058;-72
2023/04/29 00:57:57;;;;;;;1.50;0.43;;;18.80;60.90;;;;;;5010152;28;20054;-71
2023/04/29 01:00:25;;;;;;;1.20;0.40;;;18.80;61.00;;;;;;5010082;28;20089;-71
2023/04/29 01:02:53;;;;;;;1.17;0.38;;;18.80;60.90;;;;;;5010554;28;20076;-72
2023/04/29 01:05:20;;;;;;;1.27;0.47;;;18.80;61.00;;;;;;5009985;28;20507;-72
2023/04/29 01:07:58;;;;;;;0.73;0.20;;;18.80;61.00;;;;;;5008763;28;20054;-72
2023/04/29 01:10:32;;;;;;;1.20;0.50;;;18.80;61.00;;;;;;5010160;28;20065;-72
2023/04/29 01:13:07;;;;;;;1.10;0.40;;;18.80;61.00;;;;;;5009181;28;20337;-72
2023/04/29 01:15:43;;;;;;;2.03;0.40;;;18.80;61.10;;;;;;5008470;28;20104;-72
2023/04/29 01:18:15;;;;;;;1.50;0.52;;;18.80;61.00;;;;;;5004823;28;20054;-72
2023/04/29 01:20:44;;;;;;;1.35;0.40;;;18.80;61.00;;;;;;5008337;28;20715;-72
2023/04/29 01:23:11;;;;;;;1.42;0.30;;;18.80;61.10;;;;;;5009628;28;20054;-71
2023/04/29 01:25:39;;;;;;;1.48;0.30;;;18.80;61.10;;;;;;5009770;28;20057;-72
2023/04/29 01:28:14;;;;;;;1.20;0.40;;;18.70;61.00;;;;;;5009618;28;20491;-72
2023/04/29 01:30:50;;;;;;;1.63;0.40;;;18.80;61.10;;;;;;5008096;28;20053;-71
2023/04/29 01:33:23;;;;;;;1.30;0.40;;;18.70;61.00;;;;;;5009924;28;20081;-71
2023/04/29 01:36:04;;;;;;;1.20;0.43;;;18.80;61.00;;;;;;5010361;28;20053;-72
2023/04/29 01:38:37;;;;;;;0.80;0.30;;;18.80;61.00;;;;;;5004703;28;20786;-72
2023/04/29 01:41:13;;;;;;;1.20;0.50;;;18.80;60.90;;;;;;4988440;28;20129;-71
2023/04/29 01:43:40;;;;;;;1.25;0.43;;;18.90;60.90;;;;;;4989901;28;20054;-71
2023/04/29 01:46:10;;;;;;;0.95;0.30;;;18.90;60.80;;;;;;4991096;28;20517;-72
2023/04/29 01:48:37;;;;;;;1.30;0.43;;;18.90;60.70;;;;;;5009111;28;20049;-71
2023/04/29 01:51:05;;;;;;;1.00;0.43;;;19.00;60.70;;;;;;5008000;28;20057;-72
2023/04/29 01:53:32;;;;;;;1.42;0.40;;;19.10;61.20;;;;;;5009698;28;20392;-71
2023/04/29 01:55:59;;;;;;;0.88;0.30;;;19.10;60.50;;;;;;5009351;28;20093;-71
2023/04/29 01:58:28;;;;;;;1.00;0.35;;;19.20;60.50;;;;;;5008447;28;20061;-71
2023/04/29 02:00:55;;;;;;;0.93;0.30;;;19.30;60.40;;;;;;5009331;28;20054;-72
2023/04/29 02:03:22;;;;;;;1.05;0.30;;;19.30;60.30;;;;;;5009320;28;20423;-71
2023/04/29 02:05:50;;;;;;;0.98;0.30;;;19.40;60.20;;;;;;5009097;28;20812;-72
2023/04/29 02:08:17;;;;;;;1.38;0.63;;;19.50;60.70;;;;;;5009440;28;20144;-72
2023/04/29 02:10:52;;;;;;;1.30;0.40;;;19.60;60.00;;;;;;5005004;28;20424;-72
2023/04/29 02:13:19;;;;;;;1.00;0.30;;;19.60;60.00;;;;;;4989201;28;20585;-72
2023/04/29 02:15:48;;;;;;;1.48;0.45;;;19.70;59.90;;;;;;4989551;28;20050;-72
2023/04/29 02:18:15;;;;;;;1.60;0.40;;;19.70;59.80;;;;;;4988542;28;20054;-73
2023/04/29 02:20:42;;;;;;;0.95;0.25;;;19.70;59.80;;;;;;4989631;28;20061;-72
2023/04/29 02:23:09;;;;;;;1.10;0.50;;;19.70;59.80;;;;;;4989550;28;20571;-72
2023/04/29 02:25:36;;;;;;;1.50;0.40;;;19.70;59.90;;;;;;4989589;28;20057;-72
2023/04/29 02:28:02;;;;;;;1.40;0.40;;;19.70;59.90;;;;;;5000850;28;20046;-71
2023/04/29 02:30:30;;;;;;;1.20;0.47;;;19.70;59.90;;;;;;5008847;28;20527;-72
2023/04/29 02:32:58;;;;;;;0.88;0.30;;;19.70;60.00;;;;;;5009236;28;20085;-72
2023/04/29 02:35:25;;;;;;;0.90;0.60;;;19.60;60.00;;;;;;5008865;28;20057;-70
2023/04/29 02:37:52;;;;;;;0.93;0.40;;;19.60;60.00;;;;;;5008824;28;20132;-72
2023/04/29 02:40:19;;;;;;;0.80;0.30;;;19.60;60.10;;;;;;4989577;28;20066;-71
2023/04/29 02:42:46;;;;;;;1.10;0.38;;;19.60;60.70;;;;;;4989311;28;20046;-71
2023/04/29 02:45:13;;;;;;;1.05;0.40;;;19.50;60.10;;;;;;5013643;28;20506;-72
2023/04/29 02:47:40;;;;;;;1.05;0.30;;;19.50;60.10;;;;;;5012158;28;20069;-72
2023/04/29 02:50:09;;;;;;;0.77;0.30;;;19.50;60.20;;;;;;5008712;28;20514;-72
2023/04/29 02:52:36;;;;;;;1.02;0.45;;;19.50;60.20;;;;;;5008998;28;20613;-71
2023/04/29 02:55:03;;;;;;;0.93;0.40;;;19.50;60.20;;;;;;5008651;28;20050;-71
2023/04/29 02:57:31;;;;;;;1.05;0.30;;;19.50;60.30;;;;;;5010052;28;20068;-72
2023/04/29 02:59:58;;;;;;;0.98;0.30;;;19.40;60.30;;;;;;5011125;28;20100;-71
2023/04/29 03:02:25;;;;;;;0.98;0.22;;;19.40;60.30;;;;;;5012889;28;20062;-71
2023/04/29 03:04:52;;;;;;;1.33;0.28;;;19.40;60.30;;;;;;5012409;28;20142;-71
2023/04/29 03:07:20;;;;;;;1.13;0.40;;;19.30;60.30;;;;;;5011011;28;20057;-72
2023/04/29 03:09:47;;;;;;;0.93;0.20;;;19.30;60.40;;;;;;5012078;28;20495;-71
2023/04/29 03:12:15;;;;;;;1.40;0.45;;;19.30;60.40;;;;;;5010278;28;20064;-72
2023/04/29 03:14:42;;;;;;;1.10;0.30;;;19.30;60.50;;;;;;5012276;28;20053;-71
2023/04/29 03:17:09;;;;;;;1.13;0.20;;;19.20;60.40;;;;;;5009953;28;20042;-72
2023/04/29 03:19:36;;;;;;;1.20;0.32;;;19.20;60.50;;;;;;5026456;28;20049;-71
2023/04/29 03:22:03;;;;;;;1.27;0.40;;;19.20;60.50;;;;;;5032292;28;20057;-72
2023/04/29 03:24:32;;;;;;;0.90;0.20;;;19.20;60.60;;;;;;5032111;28;20100;-71
2023/04/29 03:26:59;;;;;;;1.25;0.50;;;19.10;60.60;;;;;;5032052;28;20145;-72
2023/04/29 03:29:27;;;;;;;1.02;0.35;;;19.10;60.60;;;;;;5030630;28;20081;-72
2023/04/29 03:31:55;;;;;;;0.90;0.20;;;19.10;60.60;;;;;;5031953;28;20053;-72
2023/04/29 03:34:23;;;;;;;1.88;0.25;;;19.10;60.60;;;;;;5031783;28;20119;-72
2023/04/29 03:36:50;;;;;;;1.00;0.30;;;19.10;60.70;;;;;;5012929;28;20050;-72
2023/04/29 03:39:17;;;;;;;1.17;0.60;;;19.10;60.70;;;;;;5010897;28;20053;-71
2023/04/29 03:41:46;;;;;;;1.20;0.40;;;19.10;60.70;;;;;;5011894;28;20053;-71
2023/04/29 03:44:13;;;;;;;1.15;0.40;;;19.10;60.70;;;;;;5012033;28;20089;-71
2023/04/29 03:46:40;;;;;;;1.00;0.47;;;19.00;60.70;;;;;;5011263;28;20056;-72
2023/04/29 03:49:07;;;;;;;1.23;0.50;;;19.00;60.70;;;;;;5011538;28;20057;-72
2023/04/29 03:51:34;;;;;;;0.95;0.40;;;19.00;60.80;;;;;;5011781;28;20074;-72
2023/04/29 03:54:01;;;;;;;1.40;0.20;;;19.00;60.80;;;;;;5012270;28;20046;-72
2023/04/29 03:56:28;;;;;;;1.00;0.40;;;19.00;60.80;;;;;;5011656;28;20109;-72
2023/04/29 03:58:56;;;;;;;1.00;0.20;;;19.00;60.80;;;;;;5010025;28;20054;-72
2023/04/29 04:01:23;;;;;;;1.17;0.40;;;19.00;60.80;;;;;;5011212;28;20058;-72
2023/04/29 04:03:51;;;;;;;1.00;0.20;;;18.90;60.70;;;;;;5011110;28;20525;-72
2023/04/29 04:06:18;;;;;;;1.20;0.20;;;19.00;60.80;;;;;;5011069;28;20133;-71
2023/04/29 04:08:45;;;;;;;2.45;0.40;;;18.90;60.80;;;;;;5010437;28;20057;-72
2023/04/29 04:11:13;;;;;;;1.00;0.32;;;18.90;60.80;;;;;;5010241;28;20415;-72
2023/04/29 04:13:42;;;;;;;0.73;0.20;;;18.90;60.80;;;;;;5010765;28;20052;-71
2023/04/29 04:16:10;;;;;;;0.95;0.30;;;18.90;60.80;;;;;;5010072;28;20050;-72
2023/04/29 04:18:38;;;;;;;1.52;0.40;;;18.90;60.80;;;;;;5010952;28;20045;-72
2023/04/29 04:21:09;;;;;;;0.82;0.38;;;18.90;60.80;;;;;;5011078;28;20132;-71
2023/04/29 04:23:36;;;;;;;1.00;0.43;;;18.90;60.90;;;;;;5010900;28;20049;-72
2023/04/29 04:26:03;;;;;;;0.80;0.43;;;18.90;60.90;;;;;;5013494;28;20049;-73
2023/04/29 04:28:30;;;;;;;1.00;0.30;;;18.80;60.90;;;;;;5030623;28;20550;-72
2023/04/29 04:30:57;;;;;;;1.70;0.40;;;18.80;60.90;;;;;;5030457;28;20111;-72
2023/04/29 04:33:26;;;;;;;1.25;0.38;;;18.80;60.90;;;;;;5029468;28;20049;-71
2023/04/29 04:35:53;;;;;;;0.98;0.20;;;18.80;60.90;;;;;;5030390;28;20041;-71
2023/04/29 04:38:20;;;;;;;1.65;0.50;;;18.80;61.00;;;;;;5030345;28;20061;-72
2023/04/29 04:40:47;;;;;;;0.93;0.30;;;18.80;60.90;;;;;;5016903;28;20057;-72
2023/04/29 04:43:14;;;;;;;0.93;0.40;;;18.80;61.00;;;;;;5009496;28;20061;-72
2023/04/29 04:45:41;;;;;;;1.13;0.52;;;18.70;60.90;;;;;;5009331;28;20054;-71
2023/04/29 04:48:08;;;;;;;1.67;0.40;;;18.80;61.00;;;;;;5009754;28;20046;-72
2023/04/29 04:50:36;;;;;;;1.30;0.47;;;18.70;61.00;;;;;;5010387;28;20050;-71
2023/04/29 04:53:03;;;;;;;1.33;0.43;;;18.70;61.00;;;;;;5010015;28;20149;-72
2023/04/29 04:55:32;;;;;;;1.10;0.32;;;18.80;61.00;;;;;;5010500;28;20487;-70
2023/04/29 04:57:59;;;;;;;1.17;0.43;;;18.80;60.90;;;;;;5010020;28;20050;-72
2023/04/29 05:00:26;;;;;;;1.40;0.50;;;18.80;60.90;;;;;;5008680;28;20050;-72
2023/04/29 05:02:53;;;;;;;1.10;0.43;;;18.90;60.90;;;;;;5009991;28;20069;-72
2023/04/29 05:05:19;;;;;;;1.15;0.40;;;18.90;60.80;;;;;;5008837;28;20490;-71
2023/04/29 05:07:48;;;;;;;1.33;0.43;;;18.90;60.70;;;;;;4993757;28;20594;-72
2023/04/29 05:10:15;;;;;;;1.23;0.80;;;19.00;60.70;;;;;;5002083;28;20505;-72
2023/04/29 05:12:42;;;;;;;0.90;0.30;;;19.10;60.60;;;;;;5009711;28;20066;-71
2023/04/29 05:15:09;;;;;;;1.33;0.32;;;19.10;60.50;;;;;;5008659;28;20514;-72
2023/04/29 05:17:36;;;;;;;1.33;0.40;;;19.20;60.50;;;;;;5010023;28;20058;-71
2023/04/29 05:20:04;;;;;;;0.90;0.35;;;19.30;60.40;;;;;;5008844;28;20698;-71
2023/04/29 05:22:31;;;;;;;1.90;0.40;;;19.30;60.30;;;;;;5010052;28;20176;-73
2023/04/29 05:25:02;;;;;;;1.15;0.30;;;19.40;60.20;;;;;;5009979;28;20065;-72
2023/04/29 05:27:29;;;;;;;0.98;0.38;;;19.50;60.10;;;;;;5008660;28;20049;-72
2023/04/29 05:29:56;;;;;;;1.65;0.30;;;19.50;60.00;;;;;;5008645;28;20046;-72
2023/04/29 05:32:23;;;;;;;1.00;0.30;;;19.60;59.90;;;;;;5008233;28;20740;-72
2023/04/29 05:34:50;;;;;;;0.77;0.28;;;19.60;59.90;;;;;;5009120;28;20054;-72
2023/04/29 05:37:17;;;;;;;1.38;0.30;;;19.70;59.80;;;;;;5009781;28;20129;-72
2023/04/29 05:39:44;;;;;;;0.95;0.43;;;19.70;59.80;;;;;;5010051;28;20060;-72
2023/04/29 05:42:12;;;;;;;0.93;0.30;;;19.70;59.80;;;;;;5008653;28;20060;-72
2023/04/29 05:44:39;;;;;;;0.82;0.30;;;19.70;59.80;;;;;;5008776;28;20053;-72
2023/04/29 05:47:06;;;;;;;1.40;0.40;;;19.70;59.90;;;;;;5007559;28;20045;-72
2023/04/29 05:49:33;;;;;;;0.70;0.35;;;19.70;59.90;;;;;;5009531;28;20053;-69
2023/04/29 05:52:02;;;;;;;1.00;0.30;;;19.70;59.90;;;;;;5020217;28;20064;-71
2023/04/29 05:54:29;;;;;;;1.42;0.35;;;19.70;60.00;;;;;;5029107;28;20088;-71
2023/04/29 05:56:56;;;;;;;1.02;0.40;;;19.60;60.00;;;;;;5027809;28;20060;-71
2023/04/29 05:59:25;;;;;;;0.90;0.30;;;19.60;60.00;;;;;;5029139;28;20061;-71
2023/04/29 06:01:52;;;;;;;0.98;0.32;;;19.60;60.00;;;;;;5029234;28;20050;-71
2023/04/29 06:04:19;;;;;;;1.13;0.40;;;19.60;60.60;;;;;;5027518;28;20049;-72
2023/04/29 06:06:46;;;;;;;0.80;0.22;;;19.60;60.10;;;;;;4989489;28;20054;-71
2023/04/29 06:09:14;;;;;;;1.13;0.40;;;19.50;60.10;;;;;;5013451;28;20111;-71
2023/04/29 06:11:41;;;;;;;1.13;0.28;;;19.50;60.80;;;;;;5028497;28;20053;-71
2023/04/29 06:14:08;;;;;;;0.85;0.25;;;19.50;60.20;;;;;;5028444;28;20050;-72
2023/04/29 06:16:36;;;;;;;1.17;0.60;;;19.50;60.20;;;;;;5022295;28;20088;-71
2023/04/29 06:19:03;;;;;;;1.00;0.30;;;19.50;60.30;;;;;;5009118;28;20073;-71
2023/04/29 06:21:30;;;;;;;1.45;0.22;;;19.50;60.30;;;;;;5009009;28;20050;-72
2023/04/29 06:23:57;;;;;;;0.75;0.30;;;19.40;60.30;;;;;;5007811;28;20093;-71
2023/04/29 06:26:24;;;;;;;1.13;0.32;;;19.40;60.30;;;;;;5009613;28;20053;-72
2023/04/29 06:28:51;;;;;;;0.77;0.30;;;19.40;60.30;;;;;;5009006;28;20049;-72
2023/04/29 06:31:18;;;;;;;1.25;0.40;;;19.40;60.40;;;;;;5009953;28;20053;-72
2023/04/29 06:33:46;;;;;;;1.10;0.57;;;19.40;60.40;;;;;;5013034;28;20042;-71
2023/04/29 06:36:13;;;;;;;0.93;0.28;;;19.40;60.50;;;;;;5013172;28;20058;-71
2023/04/29 06:38:40;;;;;;;1.20;0.40;;;19.30;60.40;;;;;;5012706;28;20046;-71
2023/04/29 06:41:07;;;;;;;0.93;0.30;;;19.30;60.50;;;;;;4995638;28;20057;-71
2023/04/29 06:43:34;;;;;;;1.00;0.20;;;19.30;60.50;;;;;;5023429;28;20503;-71
2023/04/29 06:46:01;;;;;;;1.00;0.30;;;19.30;60.50;;;;;;5030953;28;20053;-72
2023/04/29 06:48:28;;;;;;;1.85;0.40;;;19.30;60.50;;;;;;5011550;28;20150;-72
2023/04/29 06:50:58;;;;;;;1.02;0.30;;;19.30;60.50;;;;;;5012460;28;20486;-71
2023/04/29 06:53:25;;;;;;;0.80;0.20;;;19.30;60.50;;;;;;5012815;28;20058;-72
2023/04/29 06:55:52;;;;;;;1.30;0.30;;;19.20;60.50;;;;;;5012616;28;20058;-72
2023/04/29 06:58:20;;;;;;;1.67;0.22;;;19.30;60.60;;;;;;5012822;28;20137;-71
2023/04/29 07:00:48;;;;;;;0.65;0.17;;;19.20;60.50;;;;;;5029246;28;20060;-71
2023/04/29 07:03:15;;;;;;;0.82;0.30;;;19.20;60.50;;;;;;5029628;28;20053;-72
2023/04/29 07:05:44;;;;;;;0.75;0.20;;;19.20;60.60;;;;;;5012406;28;20116;-72
2023/04/29 07:08:13;;;;;;;0.85;0.30;;;19.20;60.50;;;;;;5012043;28;20046;-71
2023/04/29 07:10:41;;;;;;;1.20;0.20;;;19.30;60.60;;;;;;5012165;28;20065;-71
2023/04/29 07:13:08;;;;;;;1.10;0.30;;;19.30;60.60;;;;;;5011568;28;20061;-72
2023/04/29 07:15:36;;;;;;;0.73;0.22;;;19.30;60.60;;;;;;5012315;28;20060;-72
2023/04/29 07:18:03;;;;;;;1.00;0.20;;;19.30;60.50;;;;;;5012481;28;20051;-71
2023/04/29 07:20:31;;;;;;;1.38;0.30;;;19.30;60.50;;;;;;5012281;28;20049;-71
2023/04/29 07:22:58;;;;;;;0.98;0.30;;;19.30;60.60;;;;;;5012148;28;20050;-70
2023/04/29 07:25:26;;;;;;;0.95;0.32;;;19.30;60.60;;;;;;5012135;28;20053;-71
2023/04/29 07:27:53;;;;;;;1.63;0.40;;;19.30;60.60;;;;;;5012068;28;20050;-72
2023/04/29 07:30:20;;;;;;;1.00;0.40;;;19.30;60.60;;;;;;5010592;28;20057;-71
2023/04/29 07:32:47;;;;;;;0.95;0.40;;;19.30;60.60;;;;;;5012278;28;20057;-70
2023/04/29 07:35:14;;;;;;;1.52;0.30;;;19.30;60.60;;;;;;5031453;28;20056;-72
2023/04/29 07:37:42;;;;;;;0.70;0.20;;;19.30;60.60;;;;;;5030434;28;20430;-71
2023/04/29 07:40:10;;;;;;;0.93;0.22;;;19.30;60.60;;;;;;5023442;28;20057;-71
2023/04/29 07:42:38;;;;;;;0.90;0.43;;;19.30;60.50;;;;;;5009747;28;20797;-72
2023/04/29 07:45:06;;;;;;;0.85;0.30;;;19.30;60.50;;;;;;5010154;28;20072;-71
2023/04/29 07:47:33;;;;;;;1.00;0.30;;;19.30;60.40;;;;;;5010997;28;20054;-71
2023/04/29 07:50:00;;;;;;;0.95;0.50;;;19.40;60.50;;;;;;5011930;28;20419;-72
2023/04/29 07:52:27;;;;;;;0.80;0.20;;;19.40;60.40;;;;;;5011406;28;20054;-72
2023/04/29 07:54:55;;;;;;;1.50;0.38;;;19.40;60.40;;;;;;5010282;28;20057;-71
2023/04/29 07:57:22;;;;;;;0.88;0.30;;;19.40;60.30;;;;;;5011685;28;20074;-71
2023/04/29 07:59:52;;;;;;;0.85;0.30;;;19.40;60.30;;;;;;5011246;28;20499;-71
2023/04/29 08:02:20;;;;;;;1.02;0.25;;;19.50;60.30;;;;;;5011069;28;20045;-71
2023/04/29 08:04:47;;;;;;;2.08;0.25;;;19.50;60.30;;;;;;5009748;28;20050;-71
2023/04/29 08:07:14;;;;;;;0.73;0.20;;;19.50;60.30;;;;;;5011858;28;20042;-71
2023/04/29 08:09:41;;;;;;;0.98;0.30;;;19.50;60.30;;;;;;5009915;28;20068;-71
2023/04/29 08:12:08;;;;;;;1.10;0.40;;;19.50;60.20;;;;;;5009191;28;20054;-71
2023/04/29 08:14:35;;;;;;;0.82;0.20;;;19.50;60.20;;;;;;5010655;28;20050;-72
2023/04/29 08:17:04;;;;;;;0.77;0.40;;;19.50;60.20;;;;;;5010192;28;20053;-72
2023/04/29 08:19:31;;;;;;;0.80;0.22;;;19.60;60.30;;;;;;5010993;28;20050;-71
2023/04/29 08:21:59;;;;;;;0.80;0.20;;;19.60;60.20;;;;;;5010849;28;20131;-72
2023/04/29 08:24:27;;;;;;;1.00;0.30;;;19.60;60.20;;;;;;5009781;28;20400;-72
2023/04/29 08:26:54;;;;;;;1.13;0.50;;;19.60;60.20;;;;;;5010855;28;20538;-71
2023/04/29 08:29:21;;;;;;;0.90;0.20;;;19.50;60.20;;;;;;5010668;28;20112;-71
2023/04/29 08:31:48;;;;;;;1.02;0.28;;;19.60;60.20;;;;;;5010644;28;20072;-72
2023/04/29 08:34:17;;;;;;;0.80;0.20;;;19.60;60.80;;;;;;5010576;28;20056;-72
2023/04/29 08:36:44;;;;;;;0.80;0.35;;;19.60;60.20;;;;;;5009332;28;20049;-71
2023/04/29 08:39:11;;;;;;;0.80;0.30;;;19.60;60.20;;;;;;5010560;28;20064;-71
2023/04/29 08:41:38;;;;;;;0.90;0.30;;;19.60;60.10;;;;;;5009626;28;20054;-71
2023/04/29 08:44:05;;;;;;;0.95;0.30;;;19.60;60.20;;;;;;5010704;28;20084;-71
2023/04/29 08:46:32;;;;;;;1.05;0.30;;;19.60;60.10;;;;;;5009370;28;20049;-71
2023/04/29 08:49:02;;;;;;;1.02;0.38;;;19.60;60.20;;;;;;5009079;28;20141;-72
2023/04/29 08:51:32;;;;;;;0.70;0.30;;;19.60;60.20;;;;;;5009285;28;20503;-71
2023/04/29 08:53:59;;;;;;;0.77;0.30;;;19.60;60.20;;;;;;5008666;28;20057;-71
2023/04/29 08:56:27;;;;;;;1.05;0.30;;;19.60;60.80;;;;;;5010271;28;20046;-72
2023/04/29 08:58:57;;;;;;;0.90;0.30;;;19.70;60.20;;;;;;5010629;28;20046;-71
2023/04/29 09:01:26;;;;;;;1.45;0.57;;;19.70;60.20;;;;;;5010556;28;20053;-71
2023/04/29 09:04:04;;;;;;;1.05;0.38;;;19.60;60.20;;;;;;5010206;28;20046;-70
2023/04/29 09:06:33;;;;;;;1.35;0.38;;;19.60;60.20;;;;;;5010141;28;20046;-70
2023/04/29 09:09:00;;;;;;;1.00;0.32;;;19.70;60.20;;;;;;5009815;28;20116;-71
2023/04/29 09:11:28;;;;;;;1.05;0.30;;;19.70;60.20;;;;;;5008114;28;20058;-71
2023/04/29 09:13:59;;;;;;;1.33;0.52;;;19.60;60.20;;;;;;5008146;28;20061;-71
2023/04/29 09:16:26;;;;;;;1.17;0.45;;;19.60;60.20;;;;;;5019628;28;20058;-72
2023/04/29 09:18:54;;;;;;;1.00;0.28;;;19.70;60.20;;;;;;5009830;28;20054;-71
2023/04/29 09:21:21;;;;;;;0.90;0.30;;;19.70;60.30;;;;;;5009801;28;20450;-72
2023/04/29 09:23:51;;;;;;;0.80;0.20;;;19.70;60.30;;;;;;5010105;28;20053;-71
2023/04/29 09:26:19;;;;;;;0.73;0.20;;;19.70;60.30;;;;;;5008526;28;20058;-72
2023/04/29 09:28:46;;;;;;;0.95;0.40;;;19.70;60.20;;;;;;5009710;28;20060;-72
2023/04/29 09:31:14;;;;;;;0.88;0.30;;;19.70;60.20;;;;;;5009835;28;20046;-71
2023/04/29 09:33:53;;;;;;;1.05;0.30;;;19.70;60.30;;;;;;5008581;28;20141;-71
2023/04/29 09:36:40;;;;;;;1.15;0.52;;;19.70;60.30;;;;;;5009592;28;20092;-72
2023/04/29 09:39:13;;;;;;;1.00;0.30;;;19.70;61.00;;;;;;5009549;28;20057;-71
2023/04/29 09:41:42;;;;;;;0.90;0.50;;;19.70;60.30;;;;;;5009243;28;20108;-71
2023/04/29 09:44:10;;;;;;;1.25;0.40;;;19.80;60.40;;;;;;5009449;28;20065;-71
2023/04/29 09:46:37;;;;;;;1.23;0.50;;;19.80;60.40;;;;;;5007125;28;20053;-71
2023/04/29 09:49:22;;;;;;;1.13;0.38;;;19.80;60.40;;;;;;5009976;28;20057;-71
2023/04/29 09:51:53;;;;;;;1.00;0.30;;;19.80;60.40;;;;;;5006258;28;20094;-72
2023/04/29 09:54:22;;;;;;;1.27;0.30;;;19.80;60.90;;;;;;5007217;28;20053;-72
2023/04/29 09:56:50;;;;;;;0.80;0.22;;;19.80;60.40;;;;;;5007458;28;20061;-71
2023/04/29 09:59:18;;;;;;;1.00;0.30;;;19.80;60.40;;;;;;5009311;28;20049;-71
2023/04/29 10:01:48;;;;;;;1.02;0.20;;;19.80;60.40;;;;;;5009311;28;20050;-71
2023/04/29 10:04:16;;;;;;;1.38;0.40;;;19.80;60.40;;;;;;5009409;28;20085;-70
2023/04/29 10:06:44;;;;;;;0.85;0.30;;;19.80;60.40;;;;;;5017206;28;20584;-71
2023/04/29 10:09:16;;;;;;;0.95;0.30;;;19.90;60.40;;;;;;5028118;28;20064;-72
2023/04/29 10:11:44;;;;;;;1.27;0.22;;;19.90;60.40;;;;;;4994898;28;20120;-72
2023/04/29 10:14:15;;;;;;;0.93;0.40;;;19.80;60.40;;;;;;5007490;28;20541;-71
2023/04/29 10:16:46;;;;;;;1.10;0.40;;;19.90;60.40;;;;;;5007615;28;20062;-71
2023/04/29 10:19:19;;;;;;;0.90;0.30;;;19.90;60.40;;;;;;5007549;28;20050;-71
2023/04/29 10:21:49;;;;;;;0.90;0.28;;;19.90;60.40;;;;;;5009315;28;20132;-71
2023/04/29 10:24:17;;;;;;;1.40;0.40;;;19.90;60.40;;;;;;5010062;28;20056;-72
2023/04/29 10:26:48;;;;;;;1.02;0.20;;;19.90;60.40;;;;;;5009326;28;20046;-71
2023/04/29 10:29:17;;;;;;;1.10;0.40;;;19.90;60.40;;;;;;5009039;28;20403;-71
2023/04/29 10:31:44;;;;;;;1.17;0.55;;;20.00;60.50;;;;;;5007893;28;20050;-71
2023/04/29 10:34:13;;;;;;;0.80;0.30;;;20.00;60.40;;;;;;5007796;28;20058;-71
2023/04/29 10:36:41;;;;;;;1.02;0.57;;;20.00;60.50;;;;;;5008899;28;20498;-71
2023/04/29 10:39:16;;;;;;;1.23;0.45;;;20.00;60.50;;;;;;5009067;28;20086;-71
2023/04/29 10:41:46;;;;;;;1.23;0.57;;;20.00;60.50;;;;;;5016575;28;20054;-72
2023/04/29 10:44:14;;;;;;;0.93;0.30;;;20.00;60.40;;;;;;5009056;28;20050;-71
2023/04/29 10:46:41;;;;;;;1.10;0.40;;;20.10;60.50;;;;;;5008361;28;20117;-71
2023/04/29 10:49:10;;;;;;;0.88;0.43;;;20.00;60.40;;;;;;5008559;28;20057;-71
2023/04/29 10:51:41;;;;;;;0.93;0.30;;;20.10;60.50;;;;;;5008922;28;20522;-72
2023/04/29 10:54:09;;;;;;;1.83;0.35;;;20.00;60.50;;;;;;5008853;28;20062;-72
2023/04/29 10:56:42;;;;;;;1.02;0.38;;;20.10;60.50;;;;;;5008617;28;20355;-71
2023/04/29 10:59:15;;;;;;;1.88;0.30;;;20.10;60.50;;;;;;5013266;28;20490;-71
2023/04/29 11:01:44;;;;;;;1.10;0.30;;;20.10;60.50;;;;;;5008485;28;20050;-71
2023/04/29 11:04:11;;;;;;;0.82;0.28;;;20.10;60.40;;;;;;5007800;28;20053;-71
2023/04/29 11:06:41;;;;;;;0.65;0.15;;;20.20;60.50;;;;;;5008492;28;20778;-71
2023/04/29 11:09:13;;;;;;;1.27;0.40;;;20.20;60.50;;;;;;5007346;28;20049;-72
2023/04/29 11:11:41;;;;;;;1.17;0.30;;;20.20;60.50;;;;;;5006639;28;20045;-71
2023/04/29 11:14:10;;;;;;;1.00;0.38;;;20.20;60.50;;;;;;5008551;28;20057;-71
2023/04/29 11:16:46;;;;;;;1.33;0.45;;;20.20;60.50;;;;;;5008023;28;20065;-71
2023/04/29 11:19:15;;;;;;;1.10;0.30;;;20.20;60.50;;;;;;5011491;28;20081;-71
2023/04/29 11:21:44;;;;;;;1.13;0.43;;;20.30;60.50;;;;;;5011988;28;20056;-71
2023/04/29 11:24:11;;;;;;;0.90;0.35;;;20.30;60.50;;;;;;5012046;28;20056;-72
2023/04/29 11:26:38;;;;;;;1.13;0.20;;;20.30;60.50;;;;;;5012370;28;20061;-71
2023/04/29 11:29:09;;;;;;;0.80;0.22;;;20.30;60.50;;;;;;5011815;28;20057;-71
2023/04/29 11:31:38;;;;;;;1.00;0.32;;;20.30;60.50;;;;;;5019496;28;20088;-72
2023/04/29 11:34:06;;;;;;;0.55;0.10;;;20.30;60.40;;;;;;5030032;28;20160;-71
2023/04/29 11:36:34;;;;;;;1.00;0.25;;;20.40;61.10;;;;;;5030333;28;20470;-72
2023/04/29 11:39:02;;;;;;;1.02;0.20;;;20.40;60.50;;;;;;5031769;28;20050;-71
2023/04/29 11:41:30;;;;;;;0.68;0.20;;;20.40;60.50;;;;;;5022131;28;20137;-71
2023/04/29 11:43:58;;;;;;;0.65;0.20;;;20.40;60.50;;;;;;5011657;28;20093;-71
2023/04/29 11:46:27;;;;;;;1.20;0.30;;;20.40;60.50;;;;;;5010848;28;20046;-72
2023/04/29 11:48:58;;;;;;;0.63;0.30;;;20.40;60.50;;;;;;5012143;28;20096;-71
2023/04/29 11:51:26;;;;;;;0.70;0.20;;;20.40;60.50;;;;;;5009968;28;20565;-70
2023/04/29 11:53:54;;;;;;;0.93;0.30;;;20.50;60.50;;;;;;5009226;28;20053;-71
2023/04/29 11:56:24;;;;;;;1.15;0.30;;;20.50;60.50;;;;;;5009994;28;20058;-72
2023/04/29 11:58:54;;;;;;;1.00;0.40;;;20.50;60.50;;;;;;5010924;28;20053;-71
2023/04/29 12:01:21;;;;;;;0.98;0.30;;;20.50;60.40;;;;;;5011364;28;20050;-71
2023/04/29 12:03:49;;;;;;;1.10;0.22;;;20.50;60.40;;;;;;5011027;28;20459;-72
2023/04/29 12:06:17;;;;;;;1.77;0.20;;;20.50;60.40;;;;;;5012032;28;20073;-72
2023/04/29 12:08:47;;;;;;;1.08;0.40;;;20.60;60.50;;;;;;5010067;28;20466;-72
2023/04/29 12:11:13;;;;;;;;;;;20.60;60.40;;;;;;5010223;28;20054;-72
2023/04/29 12:13:41;;;;;;;0.68;0.25;;;20.60;60.50;;;;;;5009572;28;20305;-71
2023/04/29 12:16:08;;;;;;;1.10;0.40;;;20.60;60.40;;;;;;5010484;28;20053;-72
2023/04/29 12:18:35;;;;;;;0.80;0.20;;;20.60;60.40;;;;;;4990287;28;20058;-71
2023/04/29 12:21:02;;;;;;;1.67;0.45;;;20.60;60.50;;;;;;4990108;28;20518;-71
2023/04/29 12:23:31;;;;;;;0.70;0.20;;;20.70;60.60;;;;;;5005948;28;20058;-71
2023/04/29 12:25:59;;;;;;;0.57;0.10;;;20.60;60.50;;;;;;5011116;28;20046;-71
2023/04/29 12:28:27;;;;;;;1.05;0.50;;;20.70;60.60;;;;;;5009483;28;20054;-71
2023/04/29 12:30:55;;;;;;;1.52;0.20;;;20.70;60.60;;;;;;5011042;28;20069;-71
2023/04/29 12:33:23;;;;;;;0.98;0.20;;;20.70;60.60;;;;;;5010905;28;20050;-71
2023/04/29 12:35:50;;;;;;;0.93;0.25;;;20.70;60.60;;;;;;5011332;28;20054;-72
2023/04/29 12:38:21;;;;;;;0.73;0.20;;;20.70;60.60;;;;;;5010781;28;20125;-70
2023/04/29 12:40:49;;;;;;;1.02;0.30;;;20.70;60.60;;;;;;5026529;28;20573;-71
2023/04/29 12:43:17;;;;;;;1.88;0.30;;;20.80;60.60;;;;;;5022489;28;20045;-72
2023/04/29 12:45:45;;;;;;;0.80;0.20;;;20.80;60.60;;;;;;5009359;28;20060;-71
2023/04/29 12:48:12;;;;;;;1.00;0.38;;;20.80;60.60;;;;;;5010050;28;20088;-72
2023/04/29 12:50:40;;;;;;;0.80;0.25;;;20.80;60.60;;;;;;5009400;28;20128;-72
2023/04/29 12:53:08;;;;;;;0.60;0.20;;;20.80;60.60;;;;;;5010793;28;20046;-71